Time;durP1;ratioP1;P1;durP2;ratioP2;P2;SDS_P1;SDS_P2;PMS_P1;PMS_P2;Temp;Humidity;BMP_temperature;BMP_pressure;BME280_temperature;BME280_humidity;BME280_pressure;Samples;Min_cycle;Max_cycle;Signal;HPM_P1;HPM_P2
2021/04/28 00:01:30;;;;;;;23.33;8.70;;;5.90;99.90;;;;;;5107533;28;20559;-67
2021/04/28 00:03:57;;;;;;;22.40;8.50;;;5.90;99.90;;;;;;5106029;28;20199;-67
2021/04/28 00:06:24;;;;;;;22.83;8.30;;;5.90;99.90;;;;;;5106926;28;20207;-67
2021/04/28 00:12:26;;;;;;;23.73;8.27;;;5.80;99.90;;;;;;5104980;28;20187;-68
2021/04/28 00:14:54;;;;;;;288.37;36.17;;;5.80;99.90;;;;;;5106331;28;20203;-68
2021/04/28 00:17:20;;;;;;;438.93;56.57;;;5.80;99.90;;;;;;5107421;28;20207;-68
2021/04/28 00:19:47;;;;;;;393.53;53.87;;;5.80;99.90;;;;;;5109307;28;20195;-68
2021/04/28 00:22:14;;;;;;;191.53;31.90;;;5.80;99.90;;;;;;5109398;28;20205;-68
2021/04/28 00:24:41;;;;;;;101.87;19.50;;;5.70;99.90;;;;;;5108217;28;20736;-68
2021/04/28 00:27:08;;;;;;;51.33;12.50;;;5.70;99.90;;;;;;5110313;28;20223;-68
2021/04/28 00:29:35;;;;;;;35.10;9.73;;;5.70;99.90;;;;;;5106899;28;20349;-68
2021/04/28 00:32:02;;;;;;;23.57;8.33;;;5.70;99.90;;;;;;5107123;28;20660;-67
2021/04/28 00:34:30;;;;;;;25.07;9.00;;;5.70;99.90;;;;;;5110773;28;20200;-68
2021/04/28 00:36:56;;;;;;;20.97;7.80;;;5.60;99.90;;;;;;5106839;28;20214;-68
2021/04/28 00:39:23;;;;;;;20.00;7.60;;;5.60;99.90;;;;;;5105701;28;20203;-67
2021/04/28 00:45:34;;;;;;;20.20;8.03;;;5.60;99.90;;;;;;5104505;28;20195;-67
2021/04/28 00:48:02;;;;;;;21.37;7.70;;;5.60;99.90;;;;;;5108850;28;20363;-67
2021/04/28 00:50:34;;;;;;;22.33;8.00;;;5.60;99.90;;;;;;5106763;28;20212;-68
2021/04/28 00:53:03;;;;;;;18.23;7.47;;;5.60;99.90;;;;;;5108615;28;20616;-68
2021/04/28 00:55:30;;;;;;;18.90;7.93;;;5.60;99.90;;;;;;5107933;28;20547;-67
2021/04/28 00:57:57;;;;;;;19.83;7.90;;;5.50;99.90;;;;;;5108989;28;20200;-67
2021/04/28 01:00:26;;;;;;;23.60;8.03;;;5.50;99.90;;;;;;5106434;28;20208;-67
2021/04/28 01:02:54;;;;;;;20.20;7.60;;;5.50;99.90;;;;;;5104466;28;20211;-68
2021/04/28 01:05:22;;;;;;;22.73;8.27;;;5.50;99.90;;;;;;5107285;28;20191;-67
2021/04/28 01:07:50;;;;;;;20.70;7.87;;;5.50;99.90;;;;;;5109808;27;20210;-67
2021/04/28 01:10:21;;;;;;;23.13;8.20;;;5.40;99.90;;;;;;5109130;27;20191;-67
2021/04/28 01:12:48;;;;;;;17.37;7.17;;;5.40;99.90;;;;;;5112075;27;20196;-67
2021/04/28 01:15:18;;;;;;;17.03;7.00;;;5.40;99.90;;;;;;5109052;27;20304;-67
2021/04/28 01:17:56;;;;;;;16.80;7.37;;;5.40;99.90;;;;;;5105435;27;20200;-68
2021/04/28 01:20:26;;;;;;;21.90;7.50;;;5.40;99.90;;;;;;5127297;27;20200;-67
2021/04/28 01:22:56;;;;;;;17.73;6.97;;;5.40;99.90;;;;;;5109883;27;20246;-68
2021/04/28 01:25:26;;;;;;;19.40;7.13;;;5.30;99.90;;;;;;5111925;27;20195;-67
2021/04/28 01:27:56;;;;;;;16.33;6.93;;;5.30;99.90;;;;;;5111758;27;20320;-67
2021/04/28 01:30:27;;;;;;;15.23;6.83;;;5.30;99.90;;;;;;5110807;27;20190;-67
2021/04/28 01:32:57;;;;;;;15.90;6.80;;;5.30;99.90;;;;;;5110094;27;20235;-67
2021/04/28 01:35:27;;;;;;;15.87;6.53;;;5.30;99.90;;;;;;5112848;27;20272;-67
2021/04/28 01:37:57;;;;;;;18.27;7.03;;;5.30;99.90;;;;;;5106827;27;20203;-67
2021/04/28 01:40:25;;;;;;;14.93;6.70;;;5.30;99.90;;;;;;5107700;27;20202;-67
2021/04/28 01:42:54;;;;;;;19.93;7.60;;;5.20;99.90;;;;;;5110268;27;20674;-67
2021/04/28 01:45:25;;;;;;;23.97;8.47;;;5.20;99.90;;;;;;5111982;27;20192;-67
2021/04/28 01:47:53;;;;;;;18.83;7.77;;;5.20;99.90;;;;;;5109321;27;20199;-68
2021/04/28 01:50:21;;;;;;;23.37;8.50;;;5.20;99.90;;;;;;5108049;27;20216;-68
2021/04/28 01:52:49;;;;;;;20.37;7.30;;;5.10;99.90;;;;;;5109421;27;20210;-67
2021/04/28 01:55:18;;;;;;;22.00;7.97;;;5.10;99.90;;;;;;5111079;27;20200;-67
2021/04/28 01:58:05;;;;;;;21.70;8.27;;;5.80;99.90;;;;;;5111518;27;20284;-67
2021/04/28 02:00:37;;;;;;;22.17;8.73;;;5.10;99.90;;;;;;5107533;27;20207;-67
2021/04/28 02:03:04;;;;;;;25.93;8.97;;;5.10;99.90;;;;;;5107682;27;20203;-67
2021/04/28 02:05:31;;;;;;;21.07;8.70;;;5.00;99.90;;;;;;5108355;27;20206;-67
2021/04/28 02:07:59;;;;;;;18.93;8.37;;;5.00;99.90;;;;;;5112428;27;20206;-67
2021/04/28 02:10:27;;;;;;;22.70;8.60;;;5.00;99.90;;;;;;5108953;27;20295;-67
2021/04/28 02:12:56;;;;;;;21.17;8.23;;;5.00;99.90;;;;;;5104553;27;20208;-67
2021/04/28 02:15:31;;;;;;;23.73;9.27;;;5.00;99.90;;;;;;5108674;27;20256;-67
2021/04/28 02:18:04;;;;;;;21.77;8.67;;;4.90;99.90;;;;;;5111479;27;20192;-67
2021/04/28 02:20:32;;;;;;;21.23;8.47;;;4.90;99.90;;;;;;5108376;27;20342;-67
2021/04/28 02:23:15;;;;;;;23.20;7.80;;;4.90;99.90;;;;;;5107568;27;20212;-67
2021/04/28 02:25:43;;;;;;;17.67;7.70;;;4.90;99.90;;;;;;5108984;28;20206;-67
2021/04/28 02:28:10;;;;;;;22.33;8.67;;;4.90;99.90;;;;;;5126515;27;20228;-68
2021/04/28 02:30:47;;;;;;;17.83;7.23;;;4.90;99.90;;;;;;5109935;27;20194;-67
2021/04/28 02:33:15;;;;;;;19.70;7.77;;;4.80;99.90;;;;;;5110733;27;20192;-67
2021/04/28 02:36:01;;;;;;;21.37;7.50;;;4.80;99.90;;;;;;5110817;28;20245;-68
2021/04/28 02:39:01;;;;;;;20.33;7.73;;;4.80;99.90;;;;;;5106052;27;20207;-67
2021/04/28 02:41:38;;;;;;;17.60;7.47;;;4.80;99.90;;;;;;5108456;28;20211;-67
2021/04/28 02:44:05;;;;;;;18.47;6.90;;;4.80;99.90;;;;;;5114080;27;20218;-67
2021/04/28 02:46:39;;;;;;;21.60;8.33;;;4.70;99.90;;;;;;5109226;28;20226;-67
2021/04/28 02:49:08;;;;;;;20.30;7.40;;;4.70;99.90;;;;;;5107896;27;20230;-68
2021/04/28 02:51:38;;;;;;;20.43;8.40;;;4.70;99.90;;;;;;5109722;28;20200;-67
2021/04/28 02:54:24;;;;;;;21.27;8.17;;;4.70;99.90;;;;;;5109511;28;20206;-67
2021/04/28 02:56:55;;;;;;;19.60;7.37;;;4.70;99.90;;;;;;5109084;27;20218;-67
2021/04/28 02:59:25;;;;;;;17.63;7.57;;;4.70;99.90;;;;;;5107774;27;20227;-67
2021/04/28 03:01:53;;;;;;;17.57;7.47;;;4.70;99.90;;;;;;5109851;27;20204;-67
2021/04/28 03:04:21;;;;;;;17.07;7.67;;;4.70;99.90;;;;;;5108268;28;20252;-66
2021/04/28 03:07:07;;;;;;;20.57;7.13;;;4.70;99.90;;;;;;5107588;27;20681;-67
2021/04/28 03:09:35;;;;;;;20.77;7.07;;;4.70;99.90;;;;;;5109696;27;20250;-67
2021/04/28 03:12:03;;;;;;;12.57;6.13;;;4.70;99.90;;;;;;5108427;27;20252;-67
2021/04/28 03:14:38;;;;;;;18.07;6.80;;;4.70;99.90;;;;;;5119239;27;20761;-68
2021/04/28 03:17:06;;;;;;;16.43;5.67;;;4.70;99.90;;;;;;5107401;27;20601;-67
2021/04/28 03:19:34;;;;;;;15.53;6.50;;;4.60;99.90;;;;;;5104287;28;20188;-67
2021/04/28 03:22:02;;;;;;;17.37;6.90;;;4.60;99.90;;;;;;5107787;28;20264;-68
2021/04/28 03:24:31;;;;;;;17.23;6.73;;;4.60;99.90;;;;;;5104763;28;20554;-67
2021/04/28 03:27:09;;;;;;;14.03;6.33;;;4.60;99.90;;;;;;5109260;27;20223;-67
2021/04/28 03:29:39;;;;;;;17.17;6.30;;;4.60;99.90;;;;;;5123769;27;20238;-67
2021/04/28 03:32:07;;;;;;;17.60;6.97;;;4.60;99.90;;;;;;5108720;27;20196;-67
2021/04/28 03:34:36;;;;;;;19.23;6.90;;;4.60;99.90;;;;;;5107331;28;20240;-67
2021/04/28 03:37:03;;;;;;;15.43;6.30;;;4.60;99.90;;;;;;5107270;27;20315;-66
2021/04/28 03:39:56;;;;;;;22.27;7.23;;;4.60;99.90;;;;;;5104043;28;20348;-67
2021/04/28 03:42:27;;;;;;;21.63;7.43;;;4.60;99.90;;;;;;5109115;27;20200;-67
2021/04/28 03:44:56;;;;;;;19.17;8.17;;;4.60;99.90;;;;;;5127119;27;20207;-66
2021/04/28 03:47:24;;;;;;;17.07;6.60;;;4.60;99.90;;;;;;5107641;28;20347;-67
2021/04/28 03:49:50;;;;;;;18.90;6.37;;;4.60;99.90;;;;;;5108899;28;20281;-67
2021/04/28 03:52:17;;;;;;;17.87;6.97;;;4.60;99.90;;;;;;5106213;28;20195;-67
2021/04/28 03:55:08;;;;;;;22.03;7.33;;;4.60;99.90;;;;;;5103269;28;20282;-67
2021/04/28 03:57:37;;;;;;;20.53;7.43;;;4.60;99.90;;;;;;5107293;28;20204;-67
2021/04/28 04:00:06;;;;;;;18.50;7.23;;;4.60;99.90;;;;;;5106580;27;20227;-67
2021/04/28 04:02:42;;;;;;;16.80;6.93;;;4.60;99.90;;;;;;5108341;27;20698;-68
2021/04/28 04:05:28;;;;;;;20.17;7.00;;;4.60;99.90;;;;;;5106290;28;20286;-67
2021/04/28 04:08:05;;;;;;;16.27;6.73;;;4.60;99.90;;;;;;5108783;27;20203;-67
2021/04/28 04:10:37;;;;;;;18.93;7.03;;;4.60;99.90;;;;;;5100682;28;20189;-67
2021/04/28 04:13:05;;;;;;;18.63;7.27;;;4.60;99.90;;;;;;5108196;28;20279;-67
2021/04/28 04:15:32;;;;;;;17.20;7.37;;;4.70;99.90;;;;;;5107470;28;20206;-67
2021/04/28 04:17:59;;;;;;;19.00;6.80;;;4.70;99.90;;;;;;5107891;28;20805;-67
2021/04/28 04:20:38;;;;;;;20.40;7.13;;;4.70;99.90;;;;;;5109122;28;20230;-67
2021/04/28 04:23:12;;;;;;;18.50;7.43;;;4.70;99.90;;;;;;5106590;28;20205;-67
2021/04/28 04:26:04;;;;;;;18.67;7.20;;;4.80;99.90;;;;;;5090616;28;20269;-66
2021/04/28 04:28:55;;;;;;;14.73;6.03;;;4.80;99.90;;;;;;5045122;28;20243;-66
2021/04/28 04:31:36;;;;;;;20.00;7.30;;;4.80;99.90;;;;;;5029830;28;20272;-67
2021/04/28 04:34:24;;;;;;;16.80;6.77;;;4.90;99.90;;;;;;4982279;28;20215;-67
2021/04/28 04:37:09;;;;;;;17.57;6.00;;;4.90;99.90;;;;;;4985001;28;20210;-67
2021/04/28 04:40:12;;;;;;;12.37;5.03;;;5.00;99.90;;;;;;4946390;28;20313;-67
2021/04/28 04:43:01;;;;;;;10.97;4.47;;;5.10;99.90;;;;;;4949787;28;20633;-67
2021/04/28 04:48:35;;;;;;;9.70;4.37;;;5.10;99.90;;;;;;5081206;28;20950;-67
2021/04/28 04:51:02;;;;;;;9.73;3.67;;;5.20;99.90;;;;;;5057043;28;20303;-66
2021/04/28 04:53:29;;;;;;;11.43;3.90;;;5.30;99.90;;;;;;5061962;28;20209;-67
2021/04/28 04:55:55;;;;;;;9.17;4.60;;;5.40;99.90;;;;;;5065327;28;20201;-66
2021/04/28 04:58:23;;;;;;;11.90;4.60;;;5.40;99.90;;;;;;5062850;28;20291;-67
2021/04/28 05:00:49;;;;;;;10.53;4.07;;;5.50;99.90;;;;;;5064062;28;20213;-67
2021/04/28 05:03:16;;;;;;;10.20;4.40;;;5.50;99.90;;;;;;5058179;28;20545;-67
2021/04/28 05:05:44;;;;;;;8.90;3.87;;;5.60;99.90;;;;;;5076527;28;20468;-67
2021/04/28 05:08:10;;;;;;;8.70;4.40;;;5.60;99.90;;;;;;5074562;28;20633;-67
2021/04/28 05:10:37;;;;;;;9.27;4.40;;;5.70;99.90;;;;;;5062569;28;20202;-67
2021/04/28 05:13:04;;;;;;;6.10;3.80;;;5.80;99.90;;;;;;5074170;28;20196;-67
2021/04/28 05:15:31;;;;;;;8.20;3.70;;;5.90;99.90;;;;;;5078982;28;20752;-67
2021/04/28 05:17:59;;;;;;;6.13;3.33;;;6.00;99.90;;;;;;5073458;28;20207;-67
2021/04/28 05:20:26;;;;;;;6.67;3.77;;;6.10;99.90;;;;;;5067237;28;20201;-67
2021/04/28 05:22:54;;;;;;;5.50;3.00;;;6.20;99.90;;;;;;5068746;28;20197;-67
2021/04/28 05:25:30;;;;;;;5.77;2.90;;;6.30;99.90;;;;;;5066878;28;20205;-66
2021/04/28 05:27:56;;;;;;;6.43;3.67;;;6.40;99.90;;;;;;5062827;28;20244;-67
2021/04/28 05:30:26;;;;;;;5.80;2.97;;;6.50;99.90;;;;;;5066104;28;20208;-67
2021/04/28 05:32:53;;;;;;;4.33;2.90;;;6.60;99.90;;;;;;5060771;28;20201;-67
2021/04/28 05:35:20;;;;;;;5.53;2.90;;;6.80;99.90;;;;;;5057721;28;20290;-67
2021/04/28 05:37:46;;;;;;;5.43;3.20;;;6.90;99.90;;;;;;5066176;28;20200;-67
2021/04/28 05:40:15;;;;;;;6.20;3.13;;;7.00;99.90;;;;;;5056130;28;20703;-67
2021/04/28 05:42:42;;;;;;;4.60;2.67;;;7.30;99.90;;;;;;5064830;28;20201;-67
2021/04/28 05:45:11;;;;;;;4.00;2.90;;;7.80;99.90;;;;;;5065850;28;20206;-67
2021/04/28 05:47:38;;;;;;;3.70;2.63;;;8.40;99.90;;;;;;5064199;28;20255;-68
2021/04/28 05:50:07;;;;;;;5.83;3.00;;;9.10;99.90;;;;;;5063637;28;20203;-68
2021/04/28 05:52:34;;;;;;;4.80;3.43;;;9.90;99.90;;;;;;5062139;28;20198;-67
2021/04/28 05:55:01;;;;;;;4.60;3.50;;;10.80;97.00;;;;;;5054278;28;20201;-69
2021/04/28 05:57:29;;;;;;;5.37;3.97;;;11.80;94.60;;;;;;5066501;28;20194;-67
2021/04/28 05:59:56;;;;;;;5.03;3.50;;;13.10;91.20;;;;;;5057761;28;20199;-68
2021/04/28 06:02:25;;;;;;;7.60;3.67;;;14.60;84.50;;;;;;5040378;28;20214;-67
2021/04/28 06:04:52;;;;;;;8.80;3.33;;;16.10;76.20;;;;;;5027006;28;20288;-68
2021/04/28 06:07:19;;;;;;;7.97;4.00;;;17.40;70.50;;;;;;5065664;28;20633;-69
2021/04/28 06:09:46;;;;;;;7.70;4.00;;;18.50;65.90;;;;;;5054306;28;20202;-68
2021/04/28 06:12:12;;;;;;;5.47;3.40;;;19.20;61.80;;;;;;5049203;28;20205;-67
2021/04/28 06:14:40;;;;;;;4.20;2.93;;;19.70;59.30;;;;;;5049980;28;20210;-67
2021/04/28 06:17:06;;;;;;;3.80;2.93;;;20.10;58.20;;;;;;5047908;28;20190;-67
2021/04/28 06:19:34;;;;;;;5.13;2.90;;;20.60;57.10;;;;;;5025699;28;20977;-67
2021/04/28 06:22:01;;;;;;;3.77;2.80;;;21.00;55.10;;;;;;5026224;28;20212;-67
2021/04/28 06:24:27;;;;;;;4.97;2.93;;;21.40;54.10;;;;;;5034451;28;20254;-68
2021/04/28 06:26:56;;;;;;;4.30;2.57;;;21.70;53.50;;;;;;5047166;28;20246;-68
2021/04/28 06:29:24;;;;;;;4.97;2.80;;;22.00;52.50;;;;;;5056721;28;20666;-67
2021/04/28 06:31:51;;;;;;;2.70;2.50;;;22.50;51.20;;;;;;5043145;28;20194;-68
2021/04/28 06:34:18;;;;;;;4.30;2.83;;;22.80;50.10;;;;;;5052581;28;20201;-68
2021/04/28 06:36:44;;;;;;;3.67;3.00;;;23.30;49.50;;;;;;5046559;28;20213;-67
2021/04/28 06:39:11;;;;;;;3.67;2.90;;;23.50;48.30;;;;;;5048204;28;20207;-68
2021/04/28 06:41:38;;;;;;;3.43;2.80;;;23.70;48.00;;;;;;5046821;28;20208;-68
2021/04/28 06:44:05;;;;;;;3.78;3.08;;;23.80;47.50;;;;;;5051480;28;20589;-68
2021/04/28 06:46:33;;;;;;;3.30;3.00;;;24.00;45.70;;;;;;5047574;28;20260;-69
2021/04/28 06:49:00;;;;;;;3.22;2.92;;;24.10;45.20;;;;;;5048924;28;20209;-68
2021/04/28 06:51:27;;;;;;;2.72;2.50;;;24.50;44.90;;;;;;5046472;28;20196;-69
2021/04/28 06:53:54;;;;;;;3.38;2.78;;;25.00;44.50;;;;;;5053295;28;20202;-69
2021/04/28 06:56:21;;;;;;;2.90;2.70;;;25.40;43.50;;;;;;5046274;28;20348;-69
2021/04/28 06:58:49;;;;;;;3.53;3.13;;;25.50;42.40;;;;;;5042439;28;20195;-70
2021/04/28 07:01:16;;;;;;;5.25;3.22;;;25.60;41.70;;;;;;5041837;28;20739;-70
2021/04/28 07:03:43;;;;;;;3.97;2.90;;;25.70;41.20;;;;;;5049986;28;20227;-68
2021/04/28 07:06:12;;;;;;;2.58;2.38;;;25.70;41.30;;;;;;5045083;28;20428;-68
2021/04/28 07:08:39;;;;;;;2.70;2.50;;;25.90;41.00;;;;;;5040963;28;20236;-69
2021/04/28 07:11:06;;;;;;;3.72;2.90;;;25.90;40.70;;;;;;5055296;28;20214;-69
2021/04/28 07:13:33;;;;;;;4.72;3.17;;;26.00;40.50;;;;;;5043739;28;20186;-70
2021/04/28 07:15:59;;;;;;;4.25;3.28;;;26.20;40.20;;;;;;5042608;28;20253;-69
2021/04/28 07:18:26;;;;;;;3.33;2.95;;;26.40;39.90;;;;;;5048258;28;20230;-69
2021/04/28 07:20:53;;;;;;;3.20;2.75;;;26.50;39.40;;;;;;5042397;28;20198;-69
2021/04/28 07:23:21;;;;;;;5.28;2.90;;;26.60;39.40;;;;;;5033169;28;20256;-69
2021/04/28 07:25:48;;;;;;;4.28;3.55;;;26.80;38.80;;;;;;5028693;28;20555;-69
2021/04/28 07:28:15;;;;;;;4.20;3.78;;;27.10;38.10;;;;;;5045179;28;20222;-69
2021/04/28 07:30:41;;;;;;;4.20;3.75;;;27.30;36.90;;;;;;5046174;28;20194;-69
2021/04/28 07:33:08;;;;;;;4.55;3.13;;;27.60;35.80;;;;;;5044765;28;20202;-70
2021/04/28 07:35:35;;;;;;;3.25;3.05;;;28.40;35.30;;;;;;5046161;28;20234;-69
2021/04/28 07:38:02;;;;;;;4.68;3.30;;;29.60;34.20;;;;;;5044972;28;20557;-69
2021/04/28 07:40:30;;;;;;;3.80;3.40;;;30.70;32.80;;;;;;5042149;28;20289;-70
2021/04/28 07:42:56;;;;;;;3.30;3.00;;;31.70;31.90;;;;;;5053190;28;20312;-69
2021/04/28 07:45:23;;;;;;;3.17;2.90;;;32.60;31.00;;;;;;5048854;28;20213;-70
2021/04/28 07:47:50;;;;;;;3.28;2.97;;;33.40;30.30;;;;;;5042977;28;20229;-69
2021/04/28 07:50:18;;;;;;;2.92;2.72;;;34.30;29.90;;;;;;5056204;28;20197;-70
2021/04/28 07:52:49;;;;;;;3.05;2.80;;;35.10;29.30;;;;;;5042745;28;20777;-70
2021/04/28 07:55:15;;;;;;;4.28;2.72;;;35.80;28.70;;;;;;5044830;28;20256;-70
2021/04/28 07:57:43;;;;;;;3.10;2.58;;;36.50;28.20;;;;;;5046170;28;20190;-70
2021/04/28 08:00:11;;;;;;;3.33;3.03;;;37.20;27.10;;;;;;5061863;28;20688;-70
2021/04/28 08:02:41;;;;;;;3.35;2.97;;;38.00;26.90;;;;;;5046258;28;20229;-69
2021/04/28 08:05:09;;;;;;;2.95;2.75;;;38.80;26.10;;;;;;5041482;28;20204;-70
2021/04/28 08:07:36;;;;;;;3.10;2.90;;;39.50;25.70;;;;;;5043661;28;20218;-70
2021/04/28 08:10:05;;;;;;;3.88;3.47;;;40.20;24.70;;;;;;5048171;28;20194;-70
2021/04/28 08:12:32;;;;;;;4.53;4.05;;;40.80;24.30;;;;;;5043221;28;20203;-69
2021/04/28 08:15:00;;;;;;;3.67;3.38;;;41.10;23.60;;;;;;5051159;28;20293;-70
2021/04/28 08:17:28;;;;;;;3.60;3.40;;;41.40;23.10;;;;;;5039415;28;20194;-71
2021/04/28 08:19:55;;;;;;;4.72;3.95;;;41.80;22.90;;;;;;5042323;28;20202;-70
2021/04/28 08:22:22;;;;;;;3.97;3.78;;;42.40;22.50;;;;;;5049102;28;20546;-70
2021/04/28 08:24:49;;;;;;;4.43;4.03;;;42.70;22.00;;;;;;5044937;28;20770;-71
2021/04/28 08:27:15;;;;;;;3.67;3.42;;;43.20;21.90;;;;;;5041867;28;20697;-70
2021/04/28 08:29:42;;;;;;;3.35;3.15;;;43.80;21.80;;;;;;5040735;28;20782;-70
2021/04/28 08:32:10;;;;;;;4.78;4.38;;;44.40;21.50;;;;;;5038769;28;20208;-70
2021/04/28 08:34:36;;;;;;;4.05;3.78;;;44.80;20.50;;;;;;5046974;28;20201;-71
2021/04/28 08:37:03;;;;;;;4.85;4.55;;;45.20;20.30;;;;;;5042043;28;20193;-70
2021/04/28 08:39:30;;;;;;;4.18;3.88;;;45.50;19.90;;;;;;5036278;28;20194;-70
2021/04/28 08:41:57;;;;;;;4.85;4.45;;;45.80;19.70;;;;;;5035926;28;20237;-70
2021/04/28 08:44:25;;;;;;;3.80;3.50;;;46.10;19.60;;;;;;5040174;28;20197;-71
2021/04/28 08:46:52;;;;;;;4.50;4.10;;;46.50;19.50;;;;;;5043842;28;20262;-71
2021/04/28 08:49:20;;;;;;;4.18;3.88;;;47.00;19.10;;;;;;5049364;28;20288;-70
2021/04/28 08:51:47;;;;;;;4.88;4.47;;;47.10;18.70;;;;;;5057330;28;20224;-71
2021/04/28 08:54:14;;;;;;;4.47;4.10;;;47.20;18.40;;;;;;5045653;28;20208;-69
2021/04/28 08:56:49;;;;;;;4.18;3.88;;;47.00;18.30;;;;;;5047112;28;20283;-70
2021/04/28 08:59:16;;;;;;;4.50;4.10;;;47.00;18.30;;;;;;5047416;28;20200;-70
2021/04/28 09:01:45;;;;;;;4.53;4.22;;;47.30;18.00;;;;;;5052054;28;20196;-69
2021/04/28 09:04:14;;;;;;;3.90;3.70;;;47.60;17.80;;;;;;5043585;28;20637;-70
2021/04/28 09:06:42;;;;;;;3.65;3.45;;;47.70;17.60;;;;;;5042966;28;20197;-70
2021/04/28 09:09:10;;;;;;;4.07;3.78;;;47.80;17.60;;;;;;5050761;28;20193;-70
2021/04/28 09:11:43;;;;;;;4.07;3.40;;;48.00;17.40;;;;;;5043926;28;20609;-70
2021/04/28 09:14:13;;;;;;;3.10;2.90;;;48.10;17.20;;;;;;5029382;28;20212;-70
2021/04/28 09:16:42;;;;;;;4.57;4.15;;;48.10;17.10;;;;;;5046513;28;20566;-70
2021/04/28 09:19:26;;;;;;;12.95;5.55;;;48.20;17.00;;;;;;5040194;28;20193;-69
2021/04/28 09:22:15;;;;;;;10.80;4.65;;;48.50;16.70;;;;;;5042285;28;20686;-70
2021/04/28 09:25:01;;;;;;;4.30;3.90;;;48.20;16.40;;;;;;5041665;28;20212;-70
2021/04/28 09:27:46;;;;;;;4.47;4.07;;;48.10;16.50;;;;;;5036727;28;20284;-70
2021/04/28 09:30:32;;;;;;;5.03;4.63;;;48.10;16.50;;;;;;5047331;28;20208;-70
2021/04/28 09:33:03;;;;;;;4.30;3.92;;;48.20;16.10;;;;;;5047660;28;20582;-69
2021/04/28 09:35:30;;;;;;;3.90;3.70;;;47.60;16.00;;;;;;5050914;28;20655;-70
2021/04/28 09:37:59;;;;;;;3.83;3.63;;;45.70;16.40;;;;;;5048968;28;20190;-70
2021/04/28 09:40:40;;;;;;;4.05;3.83;;;45.20;16.40;;;;;;5050518;28;20193;-69
2021/04/28 09:43:07;;;;;;;3.85;3.65;;;45.30;16.20;;;;;;5051499;28;20193;-70
2021/04/28 09:45:41;;;;;;;4.07;3.80;;;45.40;16.10;;;;;;5049540;28;20556;-71
2021/04/28 09:48:11;;;;;;;4.03;3.72;;;44.10;16.00;;;;;;5047284;28;20818;-71
2021/04/28 09:50:38;;;;;;;3.80;3.60;;;42.00;16.20;;;;;;5056506;28;20678;-70
2021/04/28 09:53:06;;;;;;;5.05;3.60;;;40.50;16.80;;;;;;5059501;28;20243;-70
2021/04/28 09:55:45;;;;;;;4.57;3.85;;;40.90;17.00;;;;;;5050588;28;20205;-70
2021/04/28 09:58:13;;;;;;;6.35;4.47;;;40.60;16.80;;;;;;5044652;28;20295;-71
2021/04/28 10:00:40;;;;;;;6.55;4.85;;;39.90;16.70;;;;;;5039587;28;20217;-71
2021/04/28 10:03:09;;;;;;;4.18;3.88;;;39.70;17.00;;;;;;5046632;28;20201;-70
2021/04/28 10:05:37;;;;;;;8.82;5.07;;;40.20;17.00;;;;;;5055273;28;20225;-70
2021/04/28 10:08:10;;;;;;;4.60;4.05;;;40.20;17.00;;;;;;5049060;28;20217;-71
2021/04/28 10:10:38;;;;;;;14.23;5.05;;;40.00;17.20;;;;;;5047769;28;20204;-68
2021/04/28 10:13:05;;;;;;;7.70;4.35;;;40.60;17.10;;;;;;5050494;28;20193;-69
2021/04/28 10:15:32;;;;;;;4.85;4.38;;;39.50;17.10;;;;;;5044772;28;20204;-69
2021/04/28 10:18:03;;;;;;;4.13;3.83;;;37.90;17.40;;;;;;5058946;28;20673;-69
2021/04/28 10:20:31;;;;;;;4.10;3.80;;;36.50;17.80;;;;;;5049011;28;20281;-69
2021/04/28 10:23:03;;;;;;;3.72;3.47;;;35.80;18.20;;;;;;5041905;28;20649;-69
2021/04/28 10:25:31;;;;;;;3.45;3.00;;;34.70;18.50;;;;;;5045592;28;20206;-70
2021/04/28 10:28:00;;;;;;;4.60;3.40;;;33.40;19.00;;;;;;5046345;28;20601;-70
2021/04/28 10:30:27;;;;;;;3.33;2.95;;;32.10;19.30;;;;;;5042983;28;20201;-70
2021/04/28 10:32:56;;;;;;;5.25;3.22;;;31.40;19.80;;;;;;5042579;28;20225;-69
2021/04/28 10:35:28;;;;;;;4.60;2.45;;;32.80;19.70;;;;;;5042420;28;20313;-70
2021/04/28 10:37:58;;;;;;;2.90;2.70;;;34.40;19.70;;;;;;5042979;28;20241;-68
2021/04/28 10:40:26;;;;;;;2.80;2.60;;;34.50;18.70;;;;;;5039860;28;20206;-68
2021/04/28 10:43:05;;;;;;;2.92;2.72;;;34.70;18.80;;;;;;5042435;28;20193;-69
2021/04/28 10:45:37;;;;;;;4.03;3.10;;;34.60;18.80;;;;;;5047476;28;20201;-69
2021/04/28 10:48:07;;;;;;;4.07;3.30;;;33.50;19.00;;;;;;5049058;28;20727;-69
2021/04/28 10:50:38;;;;;;;3.10;2.90;;;32.50;19.50;;;;;;5052550;28;20284;-69
2021/04/28 10:53:07;;;;;;;3.97;3.42;;;32.30;19.60;;;;;;5047313;28;20288;-70
2021/04/28 10:55:42;;;;;;;2.80;2.60;;;32.50;19.80;;;;;;5046522;28;20759;-69
2021/04/28 10:58:42;;;;;;;2.97;2.70;;;33.60;19.80;;;;;;5046302;28;20198;-70
2021/04/28 11:01:33;;;;;;;7.73;3.83;;;34.30;19.30;;;;;;5045776;28;20459;-69
2021/04/28 11:04:01;;;;;;;3.10;2.90;;;33.00;19.50;;;;;;5044674;28;20198;-70
2021/04/28 11:06:42;;;;;;;2.83;2.60;;;31.40;19.80;;;;;;5046114;28;20692;-71
2021/04/28 11:09:14;;;;;;;2.47;2.28;;;30.00;20.20;;;;;;5051067;28;20533;-72
2021/04/28 11:11:44;;;;;;;3.33;3.08;;;29.00;20.60;;;;;;5041929;28;20534;-72
2021/04/28 11:14:29;;;;;;;4.30;3.20;;;28.10;21.20;;;;;;5039600;28;20423;-71
2021/04/28 11:16:58;;;;;;;3.10;2.90;;;27.30;22.20;;;;;;5049187;28;20202;-71
2021/04/28 11:19:27;;;;;;;3.00;2.80;;;26.80;22.40;;;;;;5045476;28;20347;-71
2021/04/28 11:22:36;;;;;;;3.47;3.00;;;27.00;22.60;;;;;;5047890;28;20283;-72
2021/04/28 11:25:08;;;;;;;3.75;3.45;;;26.60;22.70;;;;;;4984007;28;20444;-72
2021/04/28 11:28:01;;;;;;;4.57;2.80;;;25.90;23.10;;;;;;4978860;28;20255;-71
2021/04/28 11:30:34;;;;;;;3.60;3.30;;;25.30;23.50;;;;;;4985551;28;20774;-71
2021/04/28 11:33:12;;;;;;;6.85;3.95;;;25.60;23.60;;;;;;4984541;28;20214;-72
2021/04/28 11:35:41;;;;;;;3.67;3.38;;;25.40;23.80;;;;;;4982237;28;20215;-71
2021/04/28 11:38:09;;;;;;;5.60;3.72;;;24.80;24.50;;;;;;4984987;28;20287;-73
2021/04/28 11:40:53;;;;;;;4.57;3.17;;;24.20;26.10;;;;;;4965380;28;20323;-71
2021/04/28 11:43:22;;;;;;;4.32;3.00;;;23.60;25.90;;;;;;4980627;28;20687;-72
2021/04/28 11:45:51;;;;;;;4.25;3.30;;;23.00;26.00;;;;;;4987084;28;20403;-73
2021/04/28 11:48:20;;;;;;;5.03;3.80;;;22.80;27.20;;;;;;4970949;28;20227;-71
2021/04/28 11:50:52;;;;;;;5.00;3.92;;;22.80;28.30;;;;;;4965877;28;20280;-73
2021/04/28 11:53:19;;;;;;;4.35;3.95;;;23.20;28.80;;;;;;4983870;28;20214;-72
2021/04/28 11:55:46;;;;;;;5.38;3.92;;;23.70;28.50;;;;;;4961859;28;20257;-73
2021/04/28 11:58:20;;;;;;;4.25;3.63;;;23.80;28.60;;;;;;4978593;28;20661;-72
2021/04/28 12:00:46;;;;;;;6.20;4.72;;;23.70;28.50;;;;;;4972581;28;20202;-73
2021/04/28 12:03:14;;;;;;;8.20;4.47;;;23.70;28.70;;;;;;5043442;28;20201;-73
2021/04/28 12:05:40;;;;;;;10.98;4.95;;;23.60;28.20;;;;;;5046180;28;20201;-73
2021/04/28 12:08:07;;;;;;;8.40;4.07;;;23.90;28.50;;;;;;5047032;28;20240;-72
2021/04/28 12:10:36;;;;;;;5.10;3.85;;;24.10;28.60;;;;;;5047438;28;20200;-72
2021/04/28 12:13:12;;;;;;;5.40;4.03;;;24.00;28.50;;;;;;5037203;28;20284;-72
2021/04/28 12:15:39;;;;;;;4.93;4.43;;;23.60;28.30;;;;;;5043905;28;20205;-73
2021/04/28 12:18:06;;;;;;;5.45;4.68;;;23.20;29.00;;;;;;5046625;28;20662;-73
2021/04/28 12:20:34;;;;;;;7.00;4.03;;;22.80;28.50;;;;;;5056740;28;20212;-73
2021/04/28 12:23:00;;;;;;;6.75;4.22;;;22.40;29.20;;;;;;5044903;28;20194;-72
2021/04/28 12:25:27;;;;;;;4.35;3.78;;;22.00;28.90;;;;;;5053596;28;20186;-71
2021/04/28 12:27:54;;;;;;;8.35;4.55;;;21.50;28.80;;;;;;5043470;28;20263;-73
2021/04/28 12:30:24;;;;;;;7.53;3.90;;;21.00;29.00;;;;;;5041599;28;20197;-73
2021/04/28 12:32:52;;;;;;;5.65;3.50;;;20.60;29.20;;;;;;5056427;28;20210;-74
2021/04/28 12:35:21;;;;;;;4.63;4.10;;;20.40;29.50;;;;;;5045292;28;20209;-74
2021/04/28 12:38:04;;;;;;;5.10;3.97;;;20.00;30.20;;;;;;5035311;28;20194;-74
2021/04/28 12:40:36;;;;;;;11.20;3.97;;;19.70;30.60;;;;;;5043171;28;20281;-74
2021/04/28 12:43:04;;;;;;;7.95;3.80;;;19.40;31.70;;;;;;5038827;28;20199;-73
2021/04/28 12:45:31;;;;;;;4.45;3.35;;;19.10;31.60;;;;;;5042674;28;20198;-73
2021/04/28 12:48:09;;;;;;;3.58;3.35;;;18.90;31.80;;;;;;5056580;28;20559;-73
2021/04/28 12:50:37;;;;;;;4.50;3.90;;;18.80;32.30;;;;;;5059520;28;20210;-73
2021/04/28 12:53:10;;;;;;;9.93;4.45;;;18.70;32.40;;;;;;5040382;28;20205;-73
2021/04/28 12:55:39;;;;;;;44.25;9.68;;;18.40;32.80;;;;;;5044328;28;20637;-73
2021/04/28 12:58:08;;;;;;;7.07;4.82;;;18.10;33.40;;;;;;5042388;28;20289;-72
2021/04/28 13:00:42;;;;;;;6.80;4.65;;;17.90;33.80;;;;;;5040262;28;20655;-72
2021/04/28 13:03:25;;;;;;;10.50;4.82;;;17.60;34.10;;;;;;5046120;28;20226;-72
2021/04/28 13:05:56;;;;;;;7.73;5.27;;;17.40;34.40;;;;;;5041410;28;20204;-74
2021/04/28 13:08:32;;;;;;;6.03;4.23;;;17.30;35.00;;;;;;5045882;28;20739;-73
2021/04/28 13:11:24;;;;;;;7.10;4.90;;;17.10;35.00;;;;;;5045484;28;20187;-74
2021/04/28 13:13:59;;;;;;;7.77;5.00;;;17.00;34.90;;;;;;4995728;28;20726;-72
2021/04/28 13:16:35;;;;;;;6.40;4.83;;;16.80;34.50;;;;;;4997142;28;20270;-71